El Vendrell, Spain
Current Conditions -  °F | °C
As of 10:00 AM on Monday 20 Oct 2014 (Local Time) from LERS Reporting Station
Clear Clear  
Wind Chill: 66°   Ceiling: Unl
Heat Index: 66°   Visibility: 6mi
Dew Point: 57°   Wind: 1mph
Humidity: 73%   Direction: NA
Pressure: 30.21"   Gusts: NA
Location:  41.22°N, 1.53°E
Report Text: LERS 200800Z VRB01KT CAVOK 19/14 Q1023
Loading
Personal Weather Stations






























Interactive Weather Map New forecast layout! Learn more

10-Day Weather Forecast

Advertisements
Track Severe Weather on mobile